메인 페이지
METAR-TAF:

METAR-TAF

공항 :

에스키셰히르, 터키

위도: 39-47N, 경도: 030-34E, 고도: 785m

현재 날씨관측

예보는 9 시간 56분 전, 09:36시(UTC)에 발표되었습니다.
여러 방향의 바람 2kt
온도 3°C
습도 100%
기압 1027 hPa
시정: 6000m

METAR: LTBI 190936Z VRB02KT 6000 NSC 03/03 Q1027 NOSIG RMK RWY08 VRB03KT

시각: 22:32 (19:32 UTC)

예보

예보는 2 시간 52분 전, 16:40시(UTC)에 발표되었습니다.
예보 대상 시간: 19일 18시부터 20일 03시까지 (UTC)
여러 방향의 바람 2kt
시정 10km 이상
1500m 미만 상공 구름 및 적란운 없음
일시적
19일 23시부터 20일 03시까지 (UTC)
시정: 3000m
박무

TAF: LTBI 191640Z 1918/2003 VRB02KT CAVOK TEMPO 1923/2003 3000 BR

4,000개 이상의 공항 관측 자료 및 예보 (METAR 및 TAF 보고).

지도상에서 검색 가능한 기상관측소가 노란 점과 빨간 점으로 표시되어 있습니다.

기상관측소 명을 보려면 표시 위로 마우스를 이동하세요.

날씨 관측과 예보를 보려면 클릭하세요.

지도 변경 : 확대하려면 엑스 표시가 있는 녹색 버튼, 축소하려면 빼기 표시가 있는 녹색 버튼, 다음 페이지의 지도를 보려면 녹색 화살표를 클릭하세요.


METAR-TAF: